Pagina principale
METAR-TAF:

METAR-TAF

Aeroporti :

Meiringen, Svizzera

latitudine: 46-44-25N, longitudine: 8-06-36E, altezza: 577 m

Osservazione

Il bollettino è stato emesso 48 minuti fa, alle 05:50 UTC
Vento 4 kt da ovest/sud-ovest, variando fra sud/sud-ovest e ovest/nord-ovest
Temperature 1°C
Umidità 93%
Pressione 1010 hPa
Visibilità 10 km o più
Cielo coperto ad un'altezza di 600 ft

METAR: LSMM 210550Z AUTO 24004KT 210V300 9999NDV OVC006 01/00 Q1010 RMK

Ora: 07:38 (06:38 UTC)


TAF: mancante

Osservazioni e previsioni meteorologiche di più di 4000 aeroporti (messaggi METAR e TAF).

Le stazioni disponibili sono rappresentate dai dischi gialli e rossi sulla carta.

Puntare il mouse per vedere il nome della stazione.

Clicca sopra per visualizzare le osservazioni e previsioni meteorologiche.

Per cambiare la mappa : fare clic sui pulsanti verdi con una croce nera per ingrandire, il pulsante verde con un trattino per diminuire, o sulla freccia verde per le mappe adiacenti.


METAR-TAF: